^^
Grace C. Lehan Memorial Weather Station Historical Data
Daily Summary for September 20, 2022 Units:  English    Metric   Both
Daily Weekly Monthly Yearly
  High: Low: Average:
Temperature: 76.6 °F 62.2 °F 68.3 °F
Dew Point: 68 °F 60.4 °F 63.5 °F
Humidity: 97% 63.5% 86%
Wind Speed: 4.2mph 0mph 0.4mph
Wind Gust: 14mph - -
Wind- - WNW
Pressure: 29.89 in 29.76 in -
Precipitation: 0.07 in    
 
 
Tabular Data for September 20, 2022
Time Temperature Dew Point Pressure Wind Wind Speed Wind Gust Humidity Rainfall Rate (Hourly) solar
00:00 66 °F 64.5 °F 29.79 in Calm     95% 0.00 in 0 W/m2
00:09 65.9 °F 64.4 °F 29.79 in Calm     95% 0.00 in 0 W/m2
00:14 65.8 °F 64.3 °F 29.80 in Calm     95% 0.00 in 0 W/m2
00:19 65.7 °F 64.2 °F 29.79 in Calm     95% 0.00 in 0 W/m2
00:24 65.7 °F 64.2 °F 29.79 in Calm     95% 0.00 in 0 W/m2
00:29 65.6 °F 64.1 °F 29.79 in Calm     95% 0.00 in 0 W/m2
00:34 65.5 °F 64 °F 29.79 in Calm     95% 0.00 in 0 W/m2
00:39 65.4 °F 63.9 °F 29.78 in Calm     95% 0.00 in 0 W/m2
00:44 65.3 °F 63.8 °F 29.79 in Calm     95% 0.00 in 0 W/m2
00:49 65.2 °F 63.7 °F 29.78 in Calm     95% 0.00 in 0 W/m2
00:54 65.1 °F 63.6 °F 29.78 in Calm     95% 0.00 in 0 W/m2
00:59 65 °F 63.5 °F 29.78 in Calm     95% 0.00 in 0 W/m2
01:04 65 °F 63.5 °F 29.78 in Calm     95% 0.00 in 0 W/m2
01:09 65 °F 63.5 °F 29.79 in Calm     95% 0.00 in 0 W/m2
01:14 64.9 °F 63.4 °F 29.79 in Calm     95% 0.00 in 0 W/m2
01:19 64.9 °F 63.5 °F 29.79 in Calm     95.4% 0.00 in 0 W/m2
01:24 64.9 °F 63.7 °F 29.79 in Calm     95.8% 0.00 in 0 W/m2
01:29 65 °F 63.8 °F 29.78 in Calm     96% 0.00 in 0 W/m2
01:34 65 °F 63.8 °F 29.78 in Calm     96% 0.00 in 0 W/m2
01:39 65 °F 63.8 °F 29.78 in Calm     96% 0.00 in 0 W/m2
01:44 65 °F 63.8 °F 29.78 in Calm     96% 0.00 in 0 W/m2
01:49 64.9 °F 63.6 °F 29.78 in Calm     95.8% 0.00 in 0 W/m2
01:54 64.8 °F 63.3 °F 29.78 in Calm     95% 0.00 in 0 W/m2
01:59 64.7 °F 63.2 °F 29.78 in Calm     95% 0.00 in 0 W/m2
02:04 64.7 °F 63.5 °F 29.78 in Calm     96% 0.00 in 0 W/m2
02:09 64.7 °F 63.5 °F 29.78 in Calm     96% 0.00 in 0 W/m2
02:14 64.8 °F 63.6 °F 29.78 in Calm     96% 0.00 in 0 W/m2
02:19 64.8 °F 63.6 °F 29.78 in Calm     96% 0.00 in 0 W/m2
02:24 64.9 °F 63.7 °F 29.77 in Calm     96% 0.00 in 0 W/m2
02:29 64.9 °F 63.7 °F 29.77 in Calm     96% 0.00 in 0 W/m2
02:34 64.9 °F 63.7 °F 29.77 in Calm     96% 0.00 in 0 W/m2
02:39 64.8 °F 63.6 °F 29.77 in Calm     96% 0.00 in 0 W/m2
02:44 64.7 °F 63.5 °F 29.76 in Calm     96% 0.00 in 0 W/m2
02:49 64.6 °F 63.4 °F 29.76 in Calm     96% 0.00 in 0 W/m2
02:54 64.6 °F 63.4 °F 29.77 in Calm     96% 0.00 in 0 W/m2
02:59 64.5 °F 63.3 °F 29.77 in Calm     96% 0.00 in 0 W/m2
03:04 64.4 °F 63.2 °F 29.78 in Calm     96% 0.00 in 0 W/m2
03:09 64.3 °F 63.1 °F 29.78 in Calm     96% 0.00 in 0 W/m2
03:14 64.2 °F 63 °F 29.77 in Calm     96% 0.00 in 0 W/m2
03:19 64.2 °F 63 °F 29.77 in Calm     96% 0.00 in 0 W/m2
03:24 64.1 °F 62.9 °F 29.77 in Calm     96% 0.00 in 0 W/m2
03:29 64.1 °F 62.9 °F 29.77 in Calm     96% 0.00 in 0 W/m2
03:34 64.1 °F 62.9 °F 29.77 in Calm     96% 0.00 in 0 W/m2
03:39 64.1 °F 62.9 °F 29.77 in Calm     96% 0.00 in 0 W/m2
03:44 64 °F 62.8 °F 29.77 in Calm     96% 0.00 in 0 W/m2
03:49 63.9 °F 62.7 °F 29.77 in Calm     96% 0.00 in 0 W/m2
03:54 63.9 °F 62.7 °F 29.77 in Calm     96% 0.00 in 0 W/m2
03:59 63.8 °F 62.6 °F 29.77 in Calm     96% 0.00 in 0 W/m2
04:00 63.7 °F 62.5 °F 29.77 in Calm     96% 0.00 in 0 W/m2
04:09 63.7 °F 62.5 °F 29.77 in Calm     96% 0.00 in 0 W/m2
04:14 63.7 °F 62.5 °F 29.78 in Calm     96% 0.00 in 0 W/m2
04:19 63.7 °F 62.5 °F 29.77 in Calm     96% 0.00 in 0 W/m2
04:24 63.7 °F 62.5 °F 29.77 in Calm     96% 0.00 in 0 W/m2
04:29 63.6 °F 62.4 °F 29.78 in Calm     96% 0.00 in 0 W/m2
04:34 63.6 °F 62.4 °F 29.78 in Calm     96% 0.00 in 0 W/m2
04:39 63.5 °F 62.3 °F 29.78 in Calm     96% 0.00 in 0 W/m2
04:44 63.5 °F 62.3 °F 29.78 in Calm     96% 0.00 in 0 W/m2
04:49 63.5 °F 62.3 °F 29.78 in Calm     96% 0.00 in 0 W/m2
04:54 63.5 °F 62.3 °F 29.78 in Calm     96% 0.00 in 0 W/m2
04:59 63.4 °F 62.2 °F 29.78 in Calm     96% 0.00 in 0 W/m2
05:04 63.5 °F 62.3 °F 29.78 in Calm     96% 0.00 in 0 W/m2
05:09 63.5 °F 62.3 °F 29.78 in Calm     96% 0.00 in 0 W/m2
05:14 63.5 °F 62.3 °F 29.78 in Calm     96% 0.00 in 0 W/m2
05:19 63.5 °F 62.3 °F 29.78 in Calm     96% 0.00 in 0 W/m2
05:24 63.5 °F 62.3 °F 29.78 in Calm     96% 0.00 in 0 W/m2
05:29 63.4 °F 62.2 °F 29.78 in Calm     96% 0.00 in 0 W/m2
05:34 63.5 °F 62.3 °F 29.78 in Calm     96% 0.00 in 0 W/m2
05:39 63.5 °F 62.3 °F 29.78 in Calm     96% 0.00 in 0 W/m2
05:44 63.4 °F 62.2 °F 29.79 in Calm     96% 0.00 in 0 W/m2
05:49 63.4 °F 62.2 °F 29.78 in Calm     96% 0.00 in 0 W/m2
05:54 63.4 °F 62.2 °F 29.79 in Calm     96% 0.00 in 0 W/m2
05:59 63.3 °F 62.1 °F 29.79 in Calm     96% 0.00 in 0 W/m2
06:04 63.3 °F 62.1 °F 29.79 in Calm     96% 0.00 in 0 W/m2
06:09 63.2 °F 62 °F 29.79 in Calm     96% 0.00 in 0 W/m2
06:14 63 °F 61.9 °F 29.79 in Calm     96% 0.00 in 0 W/m2
06:19 62.9 °F 61.7 °F 29.79 in Calm     96% 0.00 in 0 W/m2
06:24 62.7 °F 61.5 °F 29.79 in Calm     96% 0.00 in 0 W/m2
06:29 62.7 °F 61.5 °F 29.80 in Calm     96% 0.00 in 0 W/m2
06:34 62.6 °F 61.5 °F 29.80 in Calm     96% 0.00 in 0 W/m2
06:39 62.5 °F 61.4 °F 29.80 in Calm     96% 0.00 in 0 W/m2
06:44 62.4 °F 61.2 °F 29.80 in Calm     96% 0.00 in 7 W/m2
06:49 62.3 °F 61.1 °F 29.80 in Calm     96% 0.00 in 9 W/m2
06:54 62.3 °F 61.1 °F 29.81 in Calm     96% 0.00 in 12 W/m2
06:59 62.2 °F 61 °F 29.81 in Calm     96% 0.00 in 14 W/m2
07:04 62.2 °F 61 °F 29.81 in Calm     96% 0.00 in 16 W/m2
07:09 62.2 °F 61 °F 29.81 in Calm     96% 0.00 in 21 W/m2
07:14 62.3 °F 61.1 °F 29.81 in Calm     96% 0.00 in 28 W/m2
07:19 62.4 °F 61.3 °F 29.81 in Calm     96.2% 0.00 in 33 W/m2
07:24 62.6 °F 61.7 °F 29.81 in Calm     97% 0.00 in 47 W/m2
07:29 62.7 °F 61.8 °F 29.81 in Calm     97% 0.00 in 33 W/m2
07:34 62.9 °F 62 °F 29.81 in Calm     97% 0.00 in 28 W/m2
07:39 63 °F 62.1 °F 29.81 in Calm     97% 0.00 in 30 W/m2
07:44 63 °F 62.1 °F 29.82 in Calm     97% 0.00 in 44 W/m2
07:49 63.1 °F 62.2 °F 29.81 in Calm     97% 0.00 in 51 W/m2
07:54 63.2 °F 62.3 °F 29.81 in Calm     97% 0.00 in 58 W/m2
07:59 63.4 °F 62.5 °F 29.82 in Calm     97% 0.00 in 37 W/m2
08:00 63.4 °F 62.5 °F 29.81 in Calm     97% 0.00 in 37 W/m2
08:09 63.7 °F 62.8 °F 29.81 in Calm     97% 0.00 in 46 W/m2
08:14 63.8 °F 62.9 °F 29.82 in Calm     97% 0.00 in 53 W/m2
08:19 64.1 °F 63.2 °F 29.81 in Calm     97% 0.00 in 72 W/m2
08:24 64.3 °F 63.4 °F 29.82 in Calm     97% 0.00 in 107 W/m2
08:29 64.6 °F 63.7 °F 29.82 in Calm     97% 0.00 in 153 W/m2
08:34 65.1 °F 64.2 °F 29.82 in Calm     97% 0.00 in 169 W/m2
08:39 65.4 °F 64.5 °F 29.82 in Calm     97% 0.00 in 167 W/m2
08:44 65.5 °F 64.6 °F 29.82 in Calm     97% 0.00 in 153 W/m2
08:49 65.7 °F 64.8 °F 29.82 in Calm     97% 0.00 in 144 W/m2
08:54 65.8 °F 64.9 °F 29.82 in WSW 0.1 mph 2 mph 97% 0.00 in 178 W/m2
08:59 65.9 °F 65 °F 29.82 in Calm   2 mph 97% 0.00 in 355 W/m2
09:04 66.2 °F 65.3 °F 29.82 in WSW 0.1 mph 2 mph 97% 0.00 in 452 W/m2
09:09 66.4 °F 65.5 °F 29.82 in Calm   2 mph 97% 0.00 in 452 W/m2
09:14 66.8 °F 65.9 °F 29.82 in Calm   2 mph 97% 0.00 in 457 W/m2
09:19 67.3 °F 66.4 °F 29.82 in Calm   2 mph 97% 0.00 in 457 W/m2
09:24 67.5 °F 66.6 °F 29.82 in WSW 0.1 mph 2 mph 97% 0.00 in 417 W/m2
09:29 67.6 °F 66.7 °F 29.82 in Calm   2 mph 97% 0.00 in 441 W/m2
09:34 67.7 °F 66.8 °F 29.82 in West 0.3 mph 6 mph 97% 0.00 in 520 W/m2
09:39 68.2 °F 67.2 °F 29.82 in West 1.4 mph 6 mph 96.4% 0.00 in 526 W/m2
09:44 69 °F 67.4 °F 29.82 in West 1.3 mph 6 mph 94.8% 0.00 in 540 W/m2
09:49 69.8 °F 67.4 °F 29.83 in WNW 0.8 mph 10 mph 92.1% 0.00 in 550 W/m2
09:54 70.9 °F 68 °F 29.83 in WNW 0.2 mph 10 mph 90.4% 0.00 in 580 W/m2
09:59 71.9 °F 67.7 °F 29.83 in WNW 0.6 mph 10 mph 86.6% 0.00 in 599 W/m2
10:04 72.7 °F 67 °F 29.83 in WNW 2.4 mph 10 mph 82.4% 0.00 in 624 W/m2
10:09 73.3 °F 66.3 °F 29.83 in WNW 1.2 mph 10 mph 79% 0.00 in 612 W/m2
10:14 73.9 °F 66.9 °F 29.83 in WNW 1.4 mph 13 mph 78.8% 0.00 in 635 W/m2
10:19 74.3 °F 66 °F 29.83 in West 2 mph 13 mph 75.2% 0.00 in 686 W/m2
10:24 74.6 °F 66.1 °F 29.83 in WSW 0.7 mph 13 mph 74.8% 0.00 in 747 W/m2
10:29 74.8 °F 66.2 °F 29.83 in WNW 0.2 mph 13 mph 74.7% 0.00 in 207 W/m2
10:34 74.7 °F 65.7 °F 29.83 in WNW 2 mph 13 mph 73.5% 0.00 in 160 W/m2
10:39 74.6 °F 65.5 °F 29.83 in NW 1.6 mph 13 mph 73.2% 0.00 in 784 W/m2
10:44 74.8 °F 64.8 °F 29.83 in NW 3.1 mph 13 mph 71.2% 0.00 in 779 W/m2
10:49 75 °F 65.6 °F 29.82 in NW 1.8 mph 13 mph 72.3% 0.00 in 766 W/m2
10:54 75.4 °F 65.3 °F 29.82 in NW 1.5 mph 13 mph 71% 0.00 in 749 W/m2
10:59 75.7 °F 65.4 °F 29.82 in NNW 1.4 mph 13 mph 70.5% 0.00 in 745 W/m2
11:04 76.1 °F 65.4 °F 29.82 in NW 2.6 mph 13 mph 69.5% 0.00 in 814 W/m2
11:09 76.3 °F 64.9 °F 29.82 in NW 1.6 mph 11 mph 67.7% 0.00 in 874 W/m2
11:14 76.5 °F 64.8 °F 29.82 in NNW 1.9 mph 11 mph 67.2% 0.00 in 914 W/m2
11:19 76.3 °F 64.6 °F 29.82 in WNW 1.7 mph 11 mph 67.1% 0.00 in 378 W/m2
11:24 75.8 °F 64.1 °F 29.82 in WNW 1.1 mph 12 mph 67% 0.00 in 195 W/m2
11:29 75.2 °F 64.1 °F 29.82 in WNW 0.1 mph 12 mph 68.6% 0.00 in 844 W/m2
11:34 75.1 °F 64.5 °F 29.82 in WNW 0.1 mph 12 mph 69.7% 0.00 in 710 W/m2
11:39 75.3 °F 64.1 °F 29.82 in NW 1.4 mph 6 mph 68.1% 0.00 in 306 W/m2
11:44 75.2 °F 63.7 °F 29.82 in NW 1.9 mph 10 mph 67.5% 0.00 in 278 W/m2
11:49 74.9 °F 63.1 °F 29.82 in NW 1.5 mph 10 mph 66.7% 0.00 in 283 W/m2
11:54 74.5 °F 63.1 °F 29.82 in NW 2.4 mph 13 mph 67.7% 0.00 in 283 W/m2
11:59 74.4 °F 63.5 °F 29.82 in WNW 1.7 mph 13 mph 68.8% 0.00 in 271 W/m2
12:00 74.5 °F 63.7 °F 29.81 in NW 2.7 mph 13 mph 69% 0.00 in 190 W/m2
12:09 74.8 °F 63.7 °F 29.81 in West 0.8 mph 4 mph 68.4% 0.00 in 142 W/m2
12:14 75.1 °F 64 °F 29.81 in WNW 2 mph 10 mph 68.7% 0.00 in 276 W/m2
12:19 75.4 °F 64 °F 29.81 in NW 1.3 mph 10 mph 67.9% 0.00 in 417 W/m2
12:24 75.6 °F 63.6 °F 29.81 in WNW 2.1 mph 12 mph 66.3% 0.00 in 276 W/m2
12:29 75.5 °F 63 °F 29.81 in West 1.3 mph 12 mph 65.3% 0.00 in 345 W/m2
12:34 75.3 °F 63.5 °F 29.82 in WNW 0.8 mph 12 mph 66.8% 0.00 in 364 W/m2
12:39 75.5 °F 64.5 °F 29.82 in SSW 0.1 mph 4 mph 68.7% 0.00 in 345 W/m2
12:44 75.8 °F 63.6 °F 29.82 in West 2.4 mph 12 mph 65.9% 0.00 in 279 W/m2
12:49 75.8 °F 63.3 °F 29.82 in NW 1.9 mph 12 mph 65.4% 0.00 in 315 W/m2
12:54 76 °F 65 °F 29.82 in WNW 0.6 mph 12 mph 68.7% 0.00 in 350 W/m2
12:59 76.4 °F 64 °F 29.82 in WNW 3 mph 12 mph 65.5% 0.00 in 246 W/m2
13:04 76.1 °F 62.8 °F 29.82 in NW 1.7 mph 12 mph 63.5% 0.00 in 221 W/m2
13:09 75.8 °F 62.8 °F 29.82 in WNW 1.3 mph 12 mph 64.1% 0.00 in 132 W/m2
13:14 75.5 °F 63.2 °F 29.81 in WNW 1.1 mph 12 mph 65.6% 0.00 in 269 W/m2
13:19 75.5 °F 63.6 °F 29.81 in WNW 0.6 mph 12 mph 66.7% 0.00 in 197 W/m2
13:24 75.7 °F 63.9 °F 29.82 in WNW 2 mph 12 mph 67% 0.00 in 132 W/m2
13:29 75.7 °F 63.6 °F 29.82 in WNW 1.3 mph 12 mph 66.2% 0.00 in 190 W/m2
13:34 75.5 °F 63.6 °F 29.81 in WNW 0.6 mph 12 mph 66.3% 0.00 in 214 W/m2
13:39 75.6 °F 63.9 °F 29.81 in WNW 1.2 mph 6 mph 67.1% 0.00 in 100 W/m2
13:44 75.6 °F 63.9 °F 29.81 in WNW 1 mph 6 mph 67% 0.00 in 109 W/m2
13:49 75.5 °F 63.6 °F 29.81 in North 0.6 mph 6 mph 66.5% 0.00 in 127 W/m2
13:54 75.2 °F 63.4 °F 29.81 in NW 1.6 mph 7 mph 66.7% 0.00 in 227 W/m2
13:59 75.1 °F 63.6 °F 29.81 in NW 2 mph 10 mph 67.4% 0.00 in 281 W/m2
14:04 75.2 °F 63.7 °F 29.81 in WNW 1.8 mph 10 mph 67.4% 0.00 in 313 W/m2
14:09 75.7 °F 64.1 °F 29.81 in WNW 3.1 mph 11 mph 67.4% 0.00 in 318 W/m2
14:14 76 °F 63.8 °F 29.81 in WNW 0.7 mph 11 mph 65.8% 0.00 in 248 W/m2
14:19 76.3 °F 63.5 °F 29.81 in NW 0.2 mph 11 mph 64.8% 0.00 in 183 W/m2
14:24 76.4 °F 63.6 °F 29.80 in NNW 0.1 mph 11 mph 64.6% 0.00 in 183 W/m2
14:29 76.3 °F 63.4 °F 29.80 in North 0.1 mph 11 mph 64.4% 0.00 in 227 W/m2
14:34 76.4 °F 64.3 °F 29.81 in NW 1.1 mph 11 mph 66.1% 0.00 in 230 W/m2
14:39 76.6 °F 63.9 °F 29.81 in WNW 1.5 mph 11 mph 65% 0.00 in 174 W/m2
14:44 76.4 °F 63.4 °F 29.80 in NW 0.8 mph 11 mph 64% 0.00 in 221 W/m2
14:49 76.2 °F 63.6 °F 29.80 in West 1.1 mph 11 mph 64.9% 0.00 in 243 W/m2
14:54 76 °F 63.1 °F 29.80 in WSW 0.6 mph 11 mph 64.4% 0.00 in 267 W/m2
14:59 75.8 °F 63.3 °F 29.80 in Calm   11 mph 65.1% 0.00 in 237 W/m2
15:04 75.9 °F 64.4 °F 29.80 in SW 0.4 mph 11 mph 67.3% 0.00 in 202 W/m2
15:09 76.1 °F 64.5 °F 29.80 in West 1.5 mph 6 mph 67.3% 0.00 in 250 W/m2
15:14 76.4 °F 64.1 °F 29.80 in West 1.3 mph 7 mph 65.9% 0.00 in 160 W/m2
15:19 76.3 °F 63.8 °F 29.80 in WNW 2.1 mph 12 mph 65.3% 0.00 in 244 W/m2
15:24 76.1 °F 63.5 °F 29.80 in West 1.4 mph 12 mph 65.1% 0.00 in 244 W/m2
15:29 76 °F 63.7 °F 29.80 in West 1.4 mph 12 mph 65.9% 0.00 in 369 W/m2
15:34 75.9 °F 63.9 °F 29.80 in WNW 1.1 mph 12 mph 66.4% 0.00 in 638 W/m2
15:39 75.9 °F 64 °F 29.80 in WNW 1.8 mph 8 mph 66.5% 0.00 in 130 W/m2
15:44 75.8 °F 64.5 °F 29.80 in West 2 mph 12 mph 68% 0.00 in 190 W/m2
15:49 75.6 °F 64.8 °F 29.80 in West 0.8 mph 12 mph 69.3% 0.00 in 550 W/m2
15:54 75.5 °F 64.8 °F 29.81 in West 1.2 mph 12 mph 69.6% 0.00 in 483 W/m2
15:59 75.4 °F 64.5 °F 29.81 in West 0.2 mph 12 mph 69% 0.00 in 76 W/m2
16:09 75.3 °F 64.3 °F 29.80 in WSW 0.8 mph 6 mph 68.9% 0.00 in 67 W/m2
16:14 75.2 °F 64.3 °F 29.80 in WSW 0.5 mph 6 mph 68.8% 0.00 in 62 W/m2
16:19 75.2 °F 64.1 °F 29.80 in WSW 1 mph 10 mph 68.7% 0.00 in 65 W/m2
16:24 75 °F 64 °F 29.80 in WSW 2.1 mph 10 mph 68.7% 0.00 in 86 W/m2
16:29 74.7 °F 63.9 °F 29.81 in WSW 1 mph 10 mph 68.9% 0.00 in 113 W/m2
16:34 74.4 °F 64.2 °F 29.81 in WNW 0.5 mph 10 mph 70.5% 0.00 in 128 W/m2
16:39 74.3 °F 64.4 °F 29.80 in West 0.4 mph 6 mph 71.3% 0.00 in 128 W/m2
16:44 74.1 °F 64.2 °F 29.81 in West 0.4 mph 7 mph 71.2% 0.00 in 113 W/m2
16:49 74.1 °F 64.5 °F 29.81 in WNW 0.5 mph 7 mph 72% 0.00 in 79 W/m2
16:54 74.2 °F 64.7 °F 29.81 in WNW 0.5 mph 7 mph 72.1% 0.00 in 100 W/m2
16:59 74.4 °F 64.8 °F 29.81 in West 0.7 mph 7 mph 72% 0.00 in 104 W/m2
17:04 74.5 °F 64.6 °F 29.81 in WNW 0.2 mph 7 mph 71.2% 0.00 in 95 W/m2
17:09 74.6 °F 64.6 °F 29.81 in Calm   3 mph 71% 0.00 in 62 W/m2
17:14 74.6 °F 64.6 °F 29.81 in Calm   3 mph 71% 0.00 in 67 W/m2
17:19 74.5 °F 64.5 °F 29.81 in Calm   3 mph 71% 0.00 in 63 W/m2
17:24 74.4 °F 64.7 °F 29.81 in WNW 0.1 mph 3 mph 71.8% 0.00 in 58 W/m2
17:29 74.2 °F 64.9 °F 29.81 in Calm   3 mph 72.8% 0.00 in 56 W/m2
17:34 74.1 °F 64.9 °F 29.81 in WNW 0.4 mph 3 mph 73% 0.00 in 49 W/m2
17:39 74 °F 64.8 °F 29.82 in WNW 0.1 mph 3 mph 73% 0.00 in 42 W/m2
17:44 73.7 °F 65.2 °F 29.83 in NW 4.2 mph 14 mph 74.6% 0.00 in 37 W/m2
17:49 72.9 °F 65.4 °F 29.83 in NNW 0.4 mph 14 mph 77.4% 0.07 in 25 W/m2
17:54 71.8 °F 65.3 °F 29.83 in Calm   14 mph 79.9% 0.07 in 26 W/m2
17:59 71 °F 65.2 °F 29.83 in ENE 0.1 mph 14 mph 82% 0.07 in 25 W/m2
18:04 70.1 °F 64.9 °F 29.83 in Calm   14 mph 83.7% 0.07 in 39 W/m2
18:09 69.2 °F 64.4 °F 29.84 in Calm   1 mph 84.7% 0.07 in 39 W/m2
18:14 68.6 °F 64.4 °F 29.84 in Calm   1 mph 86.4% 0.07 in 26 W/m2
18:19 68.3 °F 64.4 °F 29.84 in Calm   1 mph 87.4% 0.07 in 12 W/m2
18:24 68.1 °F 64.6 °F 29.84 in NNE 0.1 mph 2 mph 88.5% 0.07 in 5 W/m2
18:29 67.9 °F 64.5 °F 29.84 in Calm   2 mph 89% 0.07 in 7 W/m2
18:34 67.7 °F 64.4 °F 29.84 in Calm   2 mph 89.2% 0.07 in 7 W/m2
18:39 67.5 °F 64.5 °F 29.84 in Calm     90% 0.07 in 5 W/m2
18:44 67.4 °F 64.4 °F 29.84 in Calm     90% 0.07 in 0 W/m2
18:49 67.2 °F 64.2 °F 29.84 in Calm     90% 0.07 in 0 W/m2
18:54 67.1 °F 64.1 °F 29.84 in Calm     90% 0.07 in 0 W/m2
18:59 67 °F 64.1 °F 29.84 in Calm     90.3% 0.07 in 0 W/m2
19:04 67 °F 64.3 °F 29.85 in Calm     91% 0.07 in 0 W/m2
19:09 67 °F 64.3 °F 29.85 in Calm     91% 0.00 in 0 W/m2
19:14 67 °F 64.3 °F 29.85 in Calm     91% 0.00 in 0 W/m2
19:19 67 °F 64.3 °F 29.85 in Calm     91% 0.00 in 0 W/m2
19:24 66.9 °F 64.2 °F 29.85 in Calm     91.1% 0.00 in 0 W/m2
19:29 66.8 °F 64.4 °F 29.85 in Calm     91.8% 0.00 in 0 W/m2
19:34 66.7 °F 64.3 °F 29.85 in NW 0.2 mph 3 mph 92% 0.00 in 0 W/m2
19:39 66.7 °F 64.3 °F 29.85 in Calm   3 mph 92% 0.00 in 0 W/m2
19:44 66.6 °F 64.2 °F 29.85 in Calm   3 mph 92% 0.00 in 0 W/m2
19:49 66.4 °F 64 °F 29.85 in Calm   3 mph 92% 0.00 in 0 W/m2
19:54 66.3 °F 63.9 °F 29.85 in Calm   3 mph 92% 0.00 in 0 W/m2
19:59 66.3 °F 63.9 °F 29.86 in Calm   3 mph 92% 0.00 in 0 W/m2
20:00 66.3 °F 63.9 °F 29.86 in Calm   3 mph 92% 0.00 in 0 W/m2
20:09 66.1 °F 63.6 °F 29.86 in Calm     91.5% 0.00 in 0 W/m2
20:14 66.2 °F 63.8 °F 29.87 in Calm     92% 0.00 in 0 W/m2
20:19 66.2 °F 63.8 °F 29.87 in Calm     92% 0.00 in 0 W/m2
20:24 66.2 °F 63.6 °F 29.87 in Calm     91.5% 0.00 in 0 W/m2
20:29 66.1 °F 63.4 °F 29.87 in Calm     91% 0.00 in 0 W/m2
20:34 66.1 °F 63.4 °F 29.88 in Calm     91% 0.00 in 0 W/m2
20:39 66.2 °F 63.5 °F 29.88 in Calm     91% 0.00 in 0 W/m2
20:44 66.1 °F 63.4 °F 29.88 in Calm     91% 0.00 in 0 W/m2
20:49 66.1 °F 63.4 °F 29.88 in NW 0.2 mph 3 mph 91% 0.00 in 0 W/m2
20:54 66.1 °F 63.1 °F 29.88 in Calm   3 mph 90.1% 0.00 in 0 W/m2
20:59 66.1 °F 63.1 °F 29.88 in Calm   3 mph 90% 0.00 in 0 W/m2
21:04 66.1 °F 63.1 °F 29.88 in Calm   3 mph 90.1% 0.00 in 0 W/m2
21:09 66.1 °F 63.2 °F 29.88 in Calm     90.2% 0.00 in 0 W/m2
21:14 66 °F 63 °F 29.88 in Calm     90% 0.00 in 0 W/m2
21:19 65.9 °F 62.7 °F 29.88 in Calm     89.3% 0.00 in 0 W/m2
21:24 65.7 °F 62.4 °F 29.88 in Calm     89% 0.00 in 0 W/m2
21:29 65.6 °F 62.3 °F 29.88 in NW 0.2 mph 2 mph 89% 0.00 in 0 W/m2
21:34 65.4 °F 62.1 °F 29.88 in Calm   2 mph 89% 0.00 in 0 W/m2
21:39 65.3 °F 62 °F 29.88 in Calm   1 mph 89% 0.00 in 0 W/m2
21:44 65.2 °F 61.9 °F 29.88 in Calm   1 mph 89% 0.00 in 0 W/m2
21:49 65.1 °F 61.8 °F 29.89 in Calm   1 mph 89% 0.00 in 0 W/m2
21:54 65 °F 61.8 °F 29.89 in Calm   1 mph 89.3% 0.00 in 0 W/m2
21:59 64.8 °F 61.8 °F 29.89 in Calm   1 mph 90% 0.00 in 0 W/m2
22:04 64.7 °F 61.7 °F 29.89 in Calm   1 mph 90% 0.00 in 0 W/m2
22:09 64.5 °F 61.5 °F 29.89 in Calm     90% 0.00 in 0 W/m2
22:14 64.4 °F 61.4 °F 29.89 in Calm     90% 0.00 in 0 W/m2
22:19 64.3 °F 61.3 °F 29.89 in Calm     90% 0.00 in 0 W/m2
22:24 64.2 °F 61.2 °F 29.89 in Calm     90% 0.00 in 0 W/m2
22:29 64.1 °F 61.1 °F 29.89 in Calm   3 mph 90% 0.00 in 0 W/m2
22:34 64 °F 61 °F 29.88 in NW 0.3 mph 3 mph 90% 0.00 in 0 W/m2
22:39 63.9 °F 60.9 °F 29.88 in NW 1.4 mph 7 mph 90% 0.00 in 0 W/m2
22:44 63.9 °F 60.9 °F 29.88 in NW 0.9 mph 7 mph 90% 0.00 in 0 W/m2
22:49 63.8 °F 60.8 °F 29.88 in Calm   7 mph 90% 0.00 in 0 W/m2
22:54 63.9 °F 60.8 °F 29.88 in WNW 0.2 mph 7 mph 89.5% 0.00 in 0 W/m2
22:59 63.9 °F 60.8 °F 29.88 in WNW 0.5 mph 7 mph 89.7% 0.00 in 0 W/m2
23:04 64 °F 61 °F 29.88 in Calm   7 mph 90% 0.00 in 0 W/m2
23:09 64 °F 61 °F 29.88 in Calm   1 mph 90% 0.00 in 0 W/m2
23:14 63.9 °F 60.9 °F 29.89 in WNW 0.1 mph 3 mph 90% 0.00 in 0 W/m2
23:19 63.9 °F 60.9 °F 29.89 in Calm   3 mph 90% 0.00 in 0 W/m2
23:24 63.8 °F 60.6 °F 29.89 in Calm   3 mph 89.2% 0.00 in 0 W/m2
23:29 63.8 °F 60.6 °F 29.89 in Calm   3 mph 89.4% 0.00 in 0 W/m2
23:34 63.7 °F 60.7 °F 29.88 in WNW 0.4 mph 4 mph 90% 0.00 in 0 W/m2
23:39 63.6 °F 60.6 °F 29.88 in Calm   4 mph 90% 0.00 in 0 W/m2
23:44 63.6 °F 60.6 °F 29.88 in Calm   4 mph 90% 0.00 in 0 W/m2
23:49 63.5 °F 60.5 °F 29.88 in Calm   4 mph 90% 0.00 in 0 W/m2
23:54 63.4 °F 60.4 °F 29.88 in NW 0.1 mph 4 mph 90% 0.00 in 0 W/m2
23:59 63.4 °F 60.4 °F 29.88 in WNW 0.1 mph 4 mph 90% 0.00 in 0 W/m2
Hartford County Weather
Compliments of Weather Underground - 4 mb